sensor_id;sensor_type;location;lat;lon;timestamp;temperature;humidity
13833;DHT22;6987;19.472;-99.276;2023-09-07T00:00:44;18.20;99.90
13833;DHT22;6987;19.472;-99.276;2023-09-07T00:03:16;18.10;99.90
13833;DHT22;6987;19.472;-99.276;2023-09-07T00:05:46;18.10;99.90
13833;DHT22;6987;19.472;-99.276;2023-09-07T00:08:17;18.10;99.90
13833;DHT22;6987;19.472;-99.276;2023-09-07T00:10:46;18.10;99.90
13833;DHT22;6987;19.472;-99.276;2023-09-07T00:13:15;18.10;99.90
13833;DHT22;6987;19.472;-99.276;2023-09-07T00:15:45;18.10;99.90
13833;DHT22;6987;19.472;-99.276;2023-09-07T00:18:14;18.10;99.90
13833;DHT22;6987;19.472;-99.276;2023-09-07T00:20:43;18.10;99.90
13833;DHT22;6987;19.472;-99.276;2023-09-07T00:23:12;18.00;99.90
13833;DHT22;6987;19.472;-99.276;2023-09-07T00:25:43;18.00;99.90
13833;DHT22;6987;19.472;-99.276;2023-09-07T00:28:13;18.10;99.90
13833;DHT22;6987;19.472;-99.276;2023-09-07T00:30:42;18.10;99.90
13833;DHT22;6987;19.472;-99.276;2023-09-07T00:33:11;18.10;99.90
13833;DHT22;6987;19.472;-99.276;2023-09-07T00:35:40;18.10;99.90
13833;DHT22;6987;19.472;-99.276;2023-09-07T00:38:09;18.10;99.90
13833;DHT22;6987;19.472;-99.276;2023-09-07T00:40:44;18.10;99.90
13833;DHT22;6987;19.472;-99.276;2023-09-07T00:43:13;18.00;99.90
13833;DHT22;6987;19.472;-99.276;2023-09-07T00:45:42;18.10;99.90
13833;DHT22;6987;19.472;-99.276;2023-09-07T00:48:12;18.20;99.90
13833;DHT22;6987;19.472;-99.276;2023-09-07T00:50:43;18.10;99.90
13833;DHT22;6987;19.472;-99.276;2023-09-07T00:53:12;18.10;99.90
13833;DHT22;6987;19.472;-99.276;2023-09-07T00:55:43;18.10;99.90
13833;DHT22;6987;19.472;-99.276;2023-09-07T00:58:13;18.00;99.90
13833;DHT22;6987;19.472;-99.276;2023-09-07T01:00:42;18.00;99.90
13833;DHT22;6987;19.472;-99.276;2023-09-07T01:03:12;17.90;99.90
13833;DHT22;6987;19.472;-99.276;2023-09-07T01:05:46;17.80;99.90
13833;DHT22;6987;19.472;-99.276;2023-09-07T01:08:24;17.80;99.90
13833;DHT22;6987;19.472;-99.276;2023-09-07T01:10:55;17.80;99.90
13833;DHT22;6987;19.472;-99.276;2023-09-07T01:13:24;17.80;99.90
13833;DHT22;6987;19.472;-99.276;2023-09-07T01:15:54;17.90;99.90
13833;DHT22;6987;19.472;-99.276;2023-09-07T01:18:24;17.90;99.90
13833;DHT22;6987;19.472;-99.276;2023-09-07T01:20:54;17.90;99.90
13833;DHT22;6987;19.472;-99.276;2023-09-07T01:23:25;17.80;99.90
13833;DHT22;6987;19.472;-99.276;2023-09-07T01:25:55;17.80;99.90
13833;DHT22;6987;19.472;-99.276;2023-09-07T01:28:25;17.80;99.90
13833;DHT22;6987;19.472;-99.276;2023-09-07T01:30:54;17.90;99.90
13833;DHT22;6987;19.472;-99.276;2023-09-07T01:33:23;17.80;99.90
13833;DHT22;6987;19.472;-99.276;2023-09-07T01:35:52;17.80;99.90
13833;DHT22;6987;19.472;-99.276;2023-09-07T01:38:22;17.80;99.90
13833;DHT22;6987;19.472;-99.276;2023-09-07T01:40:52;17.80;99.90
13833;DHT22;6987;19.472;-99.276;2023-09-07T01:43:22;17.90;99.90
13833;DHT22;6987;19.472;-99.276;2023-09-07T01:45:51;17.90;99.90
13833;DHT22;6987;19.472;-99.276;2023-09-07T01:48:19;17.90;99.90
13833;DHT22;6987;19.472;-99.276;2023-09-07T01:50:51;17.90;99.90
13833;DHT22;6987;19.472;-99.276;2023-09-07T01:53:21;17.90;99.90
13833;DHT22;6987;19.472;-99.276;2023-09-07T01:55:54;17.90;99.90
13833;DHT22;6987;19.472;-99.276;2023-09-07T01:58:25;17.90;99.90
13833;DHT22;6987;19.472;-99.276;2023-09-07T02:00:58;17.90;99.90
13833;DHT22;6987;19.472;-99.276;2023-09-07T02:03:27;17.90;99.90
13833;DHT22;6987;19.472;-99.276;2023-09-07T02:05:56;17.80;99.90
13833;DHT22;6987;19.472;-99.276;2023-09-07T02:08:25;17.80;99.90
13833;DHT22;6987;19.472;-99.276;2023-09-07T02:10:57;17.70;99.90
13833;DHT22;6987;19.472;-99.276;2023-09-07T02:13:26;17.70;99.90
13833;DHT22;6987;19.472;-99.276;2023-09-07T02:15:55;17.70;99.90
13833;DHT22;6987;19.472;-99.276;2023-09-07T02:18:24;17.70;99.90
13833;DHT22;6987;19.472;-99.276;2023-09-07T02:20:54;17.70;99.90
13833;DHT22;6987;19.472;-99.276;2023-09-07T02:23:23;17.60;99.90
13833;DHT22;6987;19.472;-99.276;2023-09-07T02:25:53;17.60;99.90
13833;DHT22;6987;19.472;-99.276;2023-09-07T02:28:24;17.50;99.90
13833;DHT22;6987;19.472;-99.276;2023-09-07T02:30:55;17.50;99.90
13833;DHT22;6987;19.472;-99.276;2023-09-07T02:33:31;17.50;99.90
13833;DHT22;6987;19.472;-99.276;2023-09-07T02:36:02;17.40;99.90
13833;DHT22;6987;19.472;-99.276;2023-09-07T02:38:32;17.40;99.90
13833;DHT22;6987;19.472;-99.276;2023-09-07T02:41:01;17.40;99.90
13833;DHT22;6987;19.472;-99.276;2023-09-07T02:43:32;17.30;99.90
13833;DHT22;6987;19.472;-99.276;2023-09-07T02:46:02;17.30;99.90
13833;DHT22;6987;19.472;-99.276;2023-09-07T02:48:31;17.30;99.90
13833;DHT22;6987;19.472;-99.276;2023-09-07T02:51:01;17.30;99.90
13833;DHT22;6987;19.472;-99.276;2023-09-07T02:53:30;17.20;99.90
13833;DHT22;6987;19.472;-99.276;2023-09-07T02:56:00;17.20;99.90
13833;DHT22;6987;19.472;-99.276;2023-09-07T02:58:32;17.20;99.90
13833;DHT22;6987;19.472;-99.276;2023-09-07T03:01:06;17.20;99.90
13833;DHT22;6987;19.472;-99.276;2023-09-07T03:03:37;17.20;99.90
13833;DHT22;6987;19.472;-99.276;2023-09-07T03:06:11;17.20;99.90
13833;DHT22;6987;19.472;-99.276;2023-09-07T03:08:41;17.20;99.90
13833;DHT22;6987;19.472;-99.276;2023-09-07T03:11:11;17.20;99.90
13833;DHT22;6987;19.472;-99.276;2023-09-07T03:13:43;17.10;99.90
13833;DHT22;6987;19.472;-99.276;2023-09-07T03:16:12;17.10;99.90
13833;DHT22;6987;19.472;-99.276;2023-09-07T03:18:42;17.10;99.90
13833;DHT22;6987;19.472;-99.276;2023-09-07T03:21:11;17.10;99.90
13833;DHT22;6987;19.472;-99.276;2023-09-07T03:23:41;17.10;99.90
13833;DHT22;6987;19.472;-99.276;2023-09-07T03:26:11;17.10;99.90
13833;DHT22;6987;19.472;-99.276;2023-09-07T03:28:43;17.10;99.90
13833;DHT22;6987;19.472;-99.276;2023-09-07T03:31:13;17.20;99.90
13833;DHT22;6987;19.472;-99.276;2023-09-07T03:33:42;17.20;99.90
13833;DHT22;6987;19.472;-99.276;2023-09-07T03:36:12;17.30;99.90
13833;DHT22;6987;19.472;-99.276;2023-09-07T03:38:42;17.20;99.90
13833;DHT22;6987;19.472;-99.276;2023-09-07T03:41:12;17.20;99.90
13833;DHT22;6987;19.472;-99.276;2023-09-07T03:43:44;17.20;99.90
13833;DHT22;6987;19.472;-99.276;2023-09-07T03:46:14;17.30;99.90
13833;DHT22;6987;19.472;-99.276;2023-09-07T03:48:43;17.30;99.90
13833;DHT22;6987;19.472;-99.276;2023-09-07T03:51:13;17.20;99.90
13833;DHT22;6987;19.472;-99.276;2023-09-07T03:53:42;17.20;99.90
13833;DHT22;6987;19.472;-99.276;2023-09-07T03:56:11;17.30;99.90
13833;DHT22;6987;19.472;-99.276;2023-09-07T03:58:46;17.30;99.90
13833;DHT22;6987;19.472;-99.276;2023-09-07T04:01:15;17.30;99.90
13833;DHT22;6987;19.472;-99.276;2023-09-07T04:03:45;17.30;99.90
13833;DHT22;6987;19.472;-99.276;2023-09-07T04:06:14;17.20;99.90
13833;DHT22;6987;19.472;-99.276;2023-09-07T04:08:44;17.30;99.90
13833;DHT22;6987;19.472;-99.276;2023-09-07T04:11:13;17.30;99.90
13833;DHT22;6987;19.472;-99.276;2023-09-07T04:13:45;17.30;99.90
13833;DHT22;6987;19.472;-99.276;2023-09-07T04:16:15;17.30;99.90
13833;DHT22;6987;19.472;-99.276;2023-09-07T04:18:44;17.30;99.90
13833;DHT22;6987;19.472;-99.276;2023-09-07T04:21:14;17.30;99.90
13833;DHT22;6987;19.472;-99.276;2023-09-07T04:23:44;17.30;99.90
13833;DHT22;6987;19.472;-99.276;2023-09-07T04:26:14;17.30;99.90
13833;DHT22;6987;19.472;-99.276;2023-09-07T04:28:45;17.30;99.90
13833;DHT22;6987;19.472;-99.276;2023-09-07T04:31:14;17.30;99.90
13833;DHT22;6987;19.472;-99.276;2023-09-07T04:33:44;17.30;99.90
13833;DHT22;6987;19.472;-99.276;2023-09-07T04:36:15;17.30;99.90
13833;DHT22;6987;19.472;-99.276;2023-09-07T04:38:44;17.30;99.90
13833;DHT22;6987;19.472;-99.276;2023-09-07T04:41:14;17.20;99.90
13833;DHT22;6987;19.472;-99.276;2023-09-07T04:43:46;17.20;99.90
13833;DHT22;6987;19.472;-99.276;2023-09-07T04:46:15;17.20;99.90
13833;DHT22;6987;19.472;-99.276;2023-09-07T04:48:45;17.20;99.90
13833;DHT22;6987;19.472;-99.276;2023-09-07T04:51:14;17.20;99.90
13833;DHT22;6987;19.472;-99.276;2023-09-07T04:53:44;17.20;99.90
13833;DHT22;6987;19.472;-99.276;2023-09-07T04:56:14;17.20;99.90
13833;DHT22;6987;19.472;-99.276;2023-09-07T04:58:46;17.20;99.90
13833;DHT22;6987;19.472;-99.276;2023-09-07T05:01:15;17.20;99.90
13833;DHT22;6987;19.472;-99.276;2023-09-07T05:03:45;17.20;99.90
13833;DHT22;6987;19.472;-99.276;2023-09-07T05:06:14;17.20;99.90
13833;DHT22;6987;19.472;-99.276;2023-09-07T05:08:44;17.20;99.90
13833;DHT22;6987;19.472;-99.276;2023-09-07T05:11:13;17.20;99.90
13833;DHT22;6987;19.472;-99.276;2023-09-07T05:13:43;17.20;99.90
13833;DHT22;6987;19.472;-99.276;2023-09-07T05:16:14;17.20;99.90
13833;DHT22;6987;19.472;-99.276;2023-09-07T05:18:44;17.20;99.90
13833;DHT22;6987;19.472;-99.276;2023-09-07T05:21:14;17.10;99.90
13833;DHT22;6987;19.472;-99.276;2023-09-07T05:23:43;17.10;99.90
13833;DHT22;6987;19.472;-99.276;2023-09-07T05:26:13;17.20;99.90
13833;DHT22;6987;19.472;-99.276;2023-09-07T05:28:42;17.20;99.90
13833;DHT22;6987;19.472;-99.276;2023-09-07T05:31:13;17.20;99.90
13833;DHT22;6987;19.472;-99.276;2023-09-07T05:33:43;17.20;99.90
13833;DHT22;6987;19.472;-99.276;2023-09-07T05:36:12;17.20;99.90
13833;DHT22;6987;19.472;-99.276;2023-09-07T05:38:42;17.20;99.90
13833;DHT22;6987;19.472;-99.276;2023-09-07T05:41:11;17.10;99.90
13833;DHT22;6987;19.472;-99.276;2023-09-07T05:43:40;17.10;99.90
13833;DHT22;6987;19.472;-99.276;2023-09-07T05:46:10;17.10;99.90
13833;DHT22;6987;19.472;-99.276;2023-09-07T05:48:41;17.10;99.90
13833;DHT22;6987;19.472;-99.276;2023-09-07T05:51:11;17.10;99.90
13833;DHT22;6987;19.472;-99.276;2023-09-07T05:53:42;17.20;99.90
13833;DHT22;6987;19.472;-99.276;2023-09-07T05:56:11;17.10;99.90
13833;DHT22;6987;19.472;-99.276;2023-09-07T05:58:40;17.10;99.90
13833;DHT22;6987;19.472;-99.276;2023-09-07T06:01:10;17.10;99.90
13833;DHT22;6987;19.472;-99.276;2023-09-07T06:03:41;17.10;99.90
13833;DHT22;6987;19.472;-99.276;2023-09-07T06:06:10;17.10;99.90
13833;DHT22;6987;19.472;-99.276;2023-09-07T06:08:40;17.10;99.90
13833;DHT22;6987;19.472;-99.276;2023-09-07T06:11:10;17.10;99.90
13833;DHT22;6987;19.472;-99.276;2023-09-07T06:13:39;17.20;99.90
13833;DHT22;6987;19.472;-99.276;2023-09-07T06:16:09;17.10;99.90
13833;DHT22;6987;19.472;-99.276;2023-09-07T06:18:38;17.10;99.90
13833;DHT22;6987;19.472;-99.276;2023-09-07T06:21:09;17.10;99.90
13833;DHT22;6987;19.472;-99.276;2023-09-07T06:23:39;17.10;99.90
13833;DHT22;6987;19.472;-99.276;2023-09-07T06:26:08;17.10;99.90
13833;DHT22;6987;19.472;-99.276;2023-09-07T06:28:38;17.10;99.90
13833;DHT22;6987;19.472;-99.276;2023-09-07T06:31:08;17.10;99.90
13833;DHT22;6987;19.472;-99.276;2023-09-07T06:33:37;17.10;99.90
13833;DHT22;6987;19.472;-99.276;2023-09-07T06:36:08;17.20;99.90
13833;DHT22;6987;19.472;-99.276;2023-09-07T06:38:38;17.20;99.90
13833;DHT22;6987;19.472;-99.276;2023-09-07T06:41:07;17.20;99.90
13833;DHT22;6987;19.472;-99.276;2023-09-07T06:43:37;17.20;99.90
13833;DHT22;6987;19.472;-99.276;2023-09-07T06:46:07;17.20;99.90
13833;DHT22;6987;19.472;-99.276;2023-09-07T06:48:37;17.20;99.90
13833;DHT22;6987;19.472;-99.276;2023-09-07T06:51:08;17.20;99.90
13833;DHT22;6987;19.472;-99.276;2023-09-07T06:53:37;17.20;99.90
13833;DHT22;6987;19.472;-99.276;2023-09-07T06:56:08;17.20;99.90
13833;DHT22;6987;19.472;-99.276;2023-09-07T06:58:37;17.20;99.90
13833;DHT22;6987;19.472;-99.276;2023-09-07T07:01:07;17.20;99.90
13833;DHT22;6987;19.472;-99.276;2023-09-07T07:03:36;17.20;99.90
13833;DHT22;6987;19.472;-99.276;2023-09-07T07:06:05;17.20;99.90
13833;DHT22;6987;19.472;-99.276;2023-09-07T07:08:37;17.20;99.90
13833;DHT22;6987;19.472;-99.276;2023-09-07T07:11:06;17.20;99.90
13833;DHT22;6987;19.472;-99.276;2023-09-07T07:13:36;17.20;99.90
13833;DHT22;6987;19.472;-99.276;2023-09-07T07:16:05;17.20;99.90
13833;DHT22;6987;19.472;-99.276;2023-09-07T07:18:35;17.20;99.90
13833;DHT22;6987;19.472;-99.276;2023-09-07T07:21:04;17.20;99.90
13833;DHT22;6987;19.472;-99.276;2023-09-07T07:23:35;17.30;99.90
13833;DHT22;6987;19.472;-99.276;2023-09-07T07:26:05;17.20;99.90
13833;DHT22;6987;19.472;-99.276;2023-09-07T07:28:35;17.20;99.90
13833;DHT22;6987;19.472;-99.276;2023-09-07T07:31:08;17.20;99.90
13833;DHT22;6987;19.472;-99.276;2023-09-07T07:33:38;17.20;99.90
13833;DHT22;6987;19.472;-99.276;2023-09-07T07:36:07;17.20;99.90
13833;DHT22;6987;19.472;-99.276;2023-09-07T07:38:39;17.10;99.90
13833;DHT22;6987;19.472;-99.276;2023-09-07T07:41:08;17.20;99.90
13833;DHT22;6987;19.472;-99.276;2023-09-07T07:43:38;17.10;99.90
13833;DHT22;6987;19.472;-99.276;2023-09-07T07:46:09;17.10;99.90
13833;DHT22;6987;19.472;-99.276;2023-09-07T07:48:38;17.10;99.90
13833;DHT22;6987;19.472;-99.276;2023-09-07T07:51:08;17.00;99.90
13833;DHT22;6987;19.472;-99.276;2023-09-07T07:53:39;17.10;99.90
13833;DHT22;6987;19.472;-99.276;2023-09-07T07:56:15;17.00;99.90
13833;DHT22;6987;19.472;-99.276;2023-09-07T07:58:45;17.00;99.90
13833;DHT22;6987;19.472;-99.276;2023-09-07T08:01:15;17.00;99.90
13833;DHT22;6987;19.472;-99.276;2023-09-07T08:03:45;17.00;99.90
13833;DHT22;6987;19.472;-99.276;2023-09-07T08:06:15;17.00;99.90
13833;DHT22;6987;19.472;-99.276;2023-09-07T08:08:47;17.00;99.90
13833;DHT22;6987;19.472;-99.276;2023-09-07T08:11:16;17.00;99.90
13833;DHT22;6987;19.472;-99.276;2023-09-07T08:13:48;17.00;99.90
13833;DHT22;6987;19.472;-99.276;2023-09-07T08:16:18;17.00;99.90
13833;DHT22;6987;19.472;-99.276;2023-09-07T08:18:47;17.00;99.90
13833;DHT22;6987;19.472;-99.276;2023-09-07T08:21:16;17.00;99.90
13833;DHT22;6987;19.472;-99.276;2023-09-07T08:23:49;16.90;99.90
13833;DHT22;6987;19.472;-99.276;2023-09-07T08:26:20;16.90;99.90
13833;DHT22;6987;19.472;-99.276;2023-09-07T08:28:49;16.90;99.90
13833;DHT22;6987;19.472;-99.276;2023-09-07T08:31:18;16.90;99.90
13833;DHT22;6987;19.472;-99.276;2023-09-07T08:33:49;16.90;99.90
13833;DHT22;6987;19.472;-99.276;2023-09-07T08:36:19;16.90;99.90
13833;DHT22;6987;19.472;-99.276;2023-09-07T08:38:51;16.90;99.90
13833;DHT22;6987;19.472;-99.276;2023-09-07T08:41:21;16.80;99.90
13833;DHT22;6987;19.472;-99.276;2023-09-07T08:43:54;16.80;99.90
13833;DHT22;6987;19.472;-99.276;2023-09-07T08:46:27;16.70;99.90
13833;DHT22;6987;19.472;-99.276;2023-09-07T08:48:57;16.70;99.90
13833;DHT22;6987;19.472;-99.276;2023-09-07T08:51:28;16.70;99.90
13833;DHT22;6987;19.472;-99.276;2023-09-07T08:54:01;16.70;99.90
13833;DHT22;6987;19.472;-99.276;2023-09-07T08:56:31;16.70;99.90
13833;DHT22;6987;19.472;-99.276;2023-09-07T08:59:01;16.70;99.90
13833;DHT22;6987;19.472;-99.276;2023-09-07T09:01:31;16.70;99.90
13833;DHT22;6987;19.472;-99.276;2023-09-07T09:04:01;16.70;99.90
13833;DHT22;6987;19.472;-99.276;2023-09-07T09:06:30;16.70;99.90
13833;DHT22;6987;19.472;-99.276;2023-09-07T09:09:02;16.70;99.90
13833;DHT22;6987;19.472;-99.276;2023-09-07T09:11:36;16.70;99.90
13833;DHT22;6987;19.472;-99.276;2023-09-07T09:14:06;16.60;99.90
13833;DHT22;6987;19.472;-99.276;2023-09-07T09:16:35;16.60;99.90
13833;DHT22;6987;19.472;-99.276;2023-09-07T09:19:04;16.60;99.90
13833;DHT22;6987;19.472;-99.276;2023-09-07T09:21:36;16.60;99.90
13833;DHT22;6987;19.472;-99.276;2023-09-07T09:24:10;16.60;99.90
13833;DHT22;6987;19.472;-99.276;2023-09-07T09:26:40;16.60;99.90
13833;DHT22;6987;19.472;-99.276;2023-09-07T09:29:10;16.60;99.90
13833;DHT22;6987;19.472;-99.276;2023-09-07T09:31:41;16.60;99.90
13833;DHT22;6987;19.472;-99.276;2023-09-07T09:34:11;16.70;99.90
13833;DHT22;6987;19.472;-99.276;2023-09-07T09:36:43;16.60;99.90
13833;DHT22;6987;19.472;-99.276;2023-09-07T09:39:23;16.60;99.90
13833;DHT22;6987;19.472;-99.276;2023-09-07T09:41:53;16.60;99.90
13833;DHT22;6987;19.472;-99.276;2023-09-07T09:44:23;16.70;99.90
13833;DHT22;6987;19.472;-99.276;2023-09-07T09:46:53;16.70;99.90
13833;DHT22;6987;19.472;-99.276;2023-09-07T09:49:23;16.70;99.90
13833;DHT22;6987;19.472;-99.276;2023-09-07T09:51:53;16.60;99.90
13833;DHT22;6987;19.472;-99.276;2023-09-07T09:54:26;16.60;99.90
13833;DHT22;6987;19.472;-99.276;2023-09-07T09:56:56;16.60;99.90
13833;DHT22;6987;19.472;-99.276;2023-09-07T09:59:26;16.60;99.90
13833;DHT22;6987;19.472;-99.276;2023-09-07T10:01:56;16.60;99.90
13833;DHT22;6987;19.472;-99.276;2023-09-07T10:04:27;16.60;99.90
13833;DHT22;6987;19.472;-99.276;2023-09-07T10:06:59;16.60;99.90
13833;DHT22;6987;19.472;-99.276;2023-09-07T10:09:35;16.60;99.90
13833;DHT22;6987;19.472;-99.276;2023-09-07T10:12:05;16.60;99.90
13833;DHT22;6987;19.472;-99.276;2023-09-07T10:14:41;16.60;99.90
13833;DHT22;6987;19.472;-99.276;2023-09-07T10:17:22;16.50;99.90
13833;DHT22;6987;19.472;-99.276;2023-09-07T10:20:02;16.50;99.90
13833;DHT22;6987;19.472;-99.276;2023-09-07T10:22:32;16.50;99.90
13833;DHT22;6987;19.472;-99.276;2023-09-07T10:25:03;16.50;99.90
13833;DHT22;6987;19.472;-99.276;2023-09-07T10:27:38;16.40;99.90
13833;DHT22;6987;19.472;-99.276;2023-09-07T10:30:12;16.30;99.90
13833;DHT22;6987;19.472;-99.276;2023-09-07T10:32:46;16.30;99.90
13833;DHT22;6987;19.472;-99.276;2023-09-07T10:35:16;16.20;99.90
13833;DHT22;6987;19.472;-99.276;2023-09-07T10:37:48;16.20;99.90
13833;DHT22;6987;19.472;-99.276;2023-09-07T10:40:23;16.20;99.90
13833;DHT22;6987;19.472;-99.276;2023-09-07T10:43:01;16.20;99.90
13833;DHT22;6987;19.472;-99.276;2023-09-07T10:45:31;16.20;99.90
13833;DHT22;6987;19.472;-99.276;2023-09-07T10:48:01;16.10;99.90
13833;DHT22;6987;19.472;-99.276;2023-09-07T10:50:31;16.10;99.90
13833;DHT22;6987;19.472;-99.276;2023-09-07T10:53:11;16.00;99.90
13833;DHT22;6987;19.472;-99.276;2023-09-07T10:55:43;16.00;99.90
13833;DHT22;6987;19.472;-99.276;2023-09-07T10:58:12;16.00;99.90
13833;DHT22;6987;19.472;-99.276;2023-09-07T11:00:41;16.00;99.90
13833;DHT22;6987;19.472;-99.276;2023-09-07T11:03:10;16.00;99.90
13833;DHT22;6987;19.472;-99.276;2023-09-07T11:05:41;15.90;99.90
13833;DHT22;6987;19.472;-99.276;2023-09-07T11:08:11;15.90;99.90
13833;DHT22;6987;19.472;-99.276;2023-09-07T11:10:42;15.90;99.90
13833;DHT22;6987;19.472;-99.276;2023-09-07T11:13:11;15.90;99.90
13833;DHT22;6987;19.472;-99.276;2023-09-07T11:15:43;15.80;99.90
13833;DHT22;6987;19.472;-99.276;2023-09-07T11:18:12;15.80;99.90
13833;DHT22;6987;19.472;-99.276;2023-09-07T11:20:42;15.80;99.90
13833;DHT22;6987;19.472;-99.276;2023-09-07T11:23:12;15.70;99.90
13833;DHT22;6987;19.472;-99.276;2023-09-07T11:25:43;15.70;99.90
13833;DHT22;6987;19.472;-99.276;2023-09-07T11:28:12;15.60;99.90
13833;DHT22;6987;19.472;-99.276;2023-09-07T11:30:49;15.60;99.90
13833;DHT22;6987;19.472;-99.276;2023-09-07T11:33:20;15.60;99.90
13833;DHT22;6987;19.472;-99.276;2023-09-07T11:35:49;15.60;99.90
13833;DHT22;6987;19.472;-99.276;2023-09-07T11:38:21;15.50;99.90
13833;DHT22;6987;19.472;-99.276;2023-09-07T11:40:52;15.50;99.90
13833;DHT22;6987;19.472;-99.276;2023-09-07T11:43:22;15.50;99.90
13833;DHT22;6987;19.472;-99.276;2023-09-07T11:45:51;15.50;99.90
13833;DHT22;6987;19.472;-99.276;2023-09-07T11:48:21;15.50;99.90
13833;DHT22;6987;19.472;-99.276;2023-09-07T11:50:50;15.40;99.90
13833;DHT22;6987;19.472;-99.276;2023-09-07T11:53:20;15.40;99.90
13833;DHT22;6987;19.472;-99.276;2023-09-07T11:55:51;15.40;99.90
13833;DHT22;6987;19.472;-99.276;2023-09-07T11:58:20;15.40;99.90
13833;DHT22;6987;19.472;-99.276;2023-09-07T12:00:51;15.40;99.90
13833;DHT22;6987;19.472;-99.276;2023-09-07T12:03:20;15.50;99.90
13833;DHT22;6987;19.472;-99.276;2023-09-07T12:05:50;15.40;99.90
13833;DHT22;6987;19.472;-99.276;2023-09-07T12:08:20;15.40;99.90
13833;DHT22;6987;19.472;-99.276;2023-09-07T12:10:51;15.40;99.90
13833;DHT22;6987;19.472;-99.276;2023-09-07T12:13:20;15.40;99.90
13833;DHT22;6987;19.472;-99.276;2023-09-07T12:15:51;15.50;99.90
13833;DHT22;6987;19.472;-99.276;2023-09-07T12:18:22;15.50;99.90
13833;DHT22;6987;19.472;-99.276;2023-09-07T12:20:52;15.50;99.90
13833;DHT22;6987;19.472;-99.276;2023-09-07T12:23:22;15.50;99.90
13833;DHT22;6987;19.472;-99.276;2023-09-07T12:25:53;15.40;99.90
13833;DHT22;6987;19.472;-99.276;2023-09-07T12:28:22;15.40;99.90
13833;DHT22;6987;19.472;-99.276;2023-09-07T12:30:51;15.30;99.90
13833;DHT22;6987;19.472;-99.276;2023-09-07T12:33:21;15.40;99.90
13833;DHT22;6987;19.472;-99.276;2023-09-07T12:35:51;15.40;99.90
13833;DHT22;6987;19.472;-99.276;2023-09-07T12:38:20;15.40;99.90
13833;DHT22;6987;19.472;-99.276;2023-09-07T12:40:55;15.40;99.90
13833;DHT22;6987;19.472;-99.276;2023-09-07T12:43:25;15.20;99.90
13833;DHT22;6987;19.472;-99.276;2023-09-07T12:45:54;15.20;99.90
13833;DHT22;6987;19.472;-99.276;2023-09-07T12:48:24;15.20;99.90
13833;DHT22;6987;19.472;-99.276;2023-09-07T12:50:55;15.10;99.90
13833;DHT22;6987;19.472;-99.276;2023-09-07T12:53:24;15.10;99.90
13833;DHT22;6987;19.472;-99.276;2023-09-07T12:55:55;15.00;99.90
13833;DHT22;6987;19.472;-99.276;2023-09-07T12:58:25;15.00;99.90
13833;DHT22;6987;19.472;-99.276;2023-09-07T13:00:54;15.00;99.90
13833;DHT22;6987;19.472;-99.276;2023-09-07T13:03:24;15.00;99.90
13833;DHT22;6987;19.472;-99.276;2023-09-07T13:05:54;15.10;99.90
13833;DHT22;6987;19.472;-99.276;2023-09-07T13:08:23;15.10;99.90
13833;DHT22;6987;19.472;-99.276;2023-09-07T13:10:54;15.20;99.90
13833;DHT22;6987;19.472;-99.276;2023-09-07T13:13:24;15.20;99.90
13833;DHT22;6987;19.472;-99.276;2023-09-07T13:15:55;15.20;99.90
13833;DHT22;6987;19.472;-99.276;2023-09-07T13:18:25;15.20;99.90
13833;DHT22;6987;19.472;-99.276;2023-09-07T13:20:54;15.20;99.90
13833;DHT22;6987;19.472;-99.276;2023-09-07T13:23:26;15.30;99.90
13833;DHT22;6987;19.472;-99.276;2023-09-07T13:25:58;15.40;99.90
13833;DHT22;6987;19.472;-99.276;2023-09-07T13:28:28;15.40;99.90
13833;DHT22;6987;19.472;-99.276;2023-09-07T13:30:57;15.40;99.90
13833;DHT22;6987;19.472;-99.276;2023-09-07T13:33:28;15.40;99.90
13833;DHT22;6987;19.472;-99.276;2023-09-07T13:35:58;15.50;99.90
13833;DHT22;6987;19.472;-99.276;2023-09-07T13:38:28;15.60;99.90
13833;DHT22;6987;19.472;-99.276;2023-09-07T13:40:59;15.60;99.90
13833;DHT22;6987;19.472;-99.276;2023-09-07T13:43:28;15.60;99.90
13833;DHT22;6987;19.472;-99.276;2023-09-07T13:45:58;15.70;99.90
13833;DHT22;6987;19.472;-99.276;2023-09-07T13:48:27;15.70;99.90
13833;DHT22;6987;19.472;-99.276;2023-09-07T13:50:57;15.80;99.90
13833;DHT22;6987;19.472;-99.276;2023-09-07T13:53:27;15.90;99.90
13833;DHT22;6987;19.472;-99.276;2023-09-07T13:55:59;16.00;99.90
13833;DHT22;6987;19.472;-99.276;2023-09-07T13:58:28;16.00;99.90
13833;DHT22;6987;19.472;-99.276;2023-09-07T14:00:57;16.10;99.90
13833;DHT22;6987;19.472;-99.276;2023-09-07T14:03:27;16.20;99.90
13833;DHT22;6987;19.472;-99.276;2023-09-07T14:05:56;16.20;99.90
13833;DHT22;6987;19.472;-99.276;2023-09-07T14:08:26;16.30;99.90
13833;DHT22;6987;19.472;-99.276;2023-09-07T14:10:59;16.40;99.90
13833;DHT22;6987;19.472;-99.276;2023-09-07T14:13:28;16.50;99.90
13833;DHT22;6987;19.472;-99.276;2023-09-07T14:15:57;16.50;99.90
13833;DHT22;6987;19.472;-99.276;2023-09-07T14:18:26;16.60;99.90
13833;DHT22;6987;19.472;-99.276;2023-09-07T14:20:56;16.60;99.90
13833;DHT22;6987;19.472;-99.276;2023-09-07T14:23:27;16.70;99.90
13833;DHT22;6987;19.472;-99.276;2023-09-07T14:26:00;16.80;99.90
13833;DHT22;6987;19.472;-99.276;2023-09-07T14:28:29;16.90;99.90
13833;DHT22;6987;19.472;-99.276;2023-09-07T14:30:59;16.90;99.90
13833;DHT22;6987;19.472;-99.276;2023-09-07T14:33:31;16.90;99.90
13833;DHT22;6987;19.472;-99.276;2023-09-07T14:36:00;16.90;99.90
13833;DHT22;6987;19.472;-99.276;2023-09-07T14:38:29;16.90;99.90
13833;DHT22;6987;19.472;-99.276;2023-09-07T14:41:03;17.00;99.90
13833;DHT22;6987;19.472;-99.276;2023-09-07T14:43:33;17.10;99.90
13833;DHT22;6987;19.472;-99.276;2023-09-07T14:46:02;17.10;99.90
13833;DHT22;6987;19.472;-99.276;2023-09-07T14:48:32;17.10;99.90
13833;DHT22;6987;19.472;-99.276;2023-09-07T14:51:02;17.20;99.90
13833;DHT22;6987;19.472;-99.276;2023-09-07T14:53:31;17.30;99.90
13833;DHT22;6987;19.472;-99.276;2023-09-07T14:56:03;17.30;99.90
13833;DHT22;6987;19.472;-99.276;2023-09-07T14:58:33;17.40;99.90
13833;DHT22;6987;19.472;-99.276;2023-09-07T15:01:03;17.40;99.90
13833;DHT22;6987;19.472;-99.276;2023-09-07T15:03:32;17.50;99.90
13833;DHT22;6987;19.472;-99.276;2023-09-07T15:06:07;17.50;99.90
13833;DHT22;6987;19.472;-99.276;2023-09-07T15:08:38;17.50;99.90
13833;DHT22;6987;19.472;-99.276;2023-09-07T15:11:10;17.60;99.90
13833;DHT22;6987;19.472;-99.276;2023-09-07T15:13:40;17.60;99.90
13833;DHT22;6987;19.472;-99.276;2023-09-07T15:16:11;17.60;99.90
13833;DHT22;6987;19.472;-99.276;2023-09-07T15:18:41;17.60;99.90
13833;DHT22;6987;19.472;-99.276;2023-09-07T15:21:11;17.60;99.90
13833;DHT22;6987;19.472;-99.276;2023-09-07T15:23:40;17.60;99.90
13833;DHT22;6987;19.472;-99.276;2023-09-07T15:26:12;17.70;99.90
13833;DHT22;6987;19.472;-99.276;2023-09-07T15:28:41;17.70;99.90
13833;DHT22;6987;19.472;-99.276;2023-09-07T15:31:11;17.70;99.90
13833;DHT22;6987;19.472;-99.276;2023-09-07T15:33:40;17.70;99.90